createdAt,value
2017-11-04T08:26:07.736Z,66.80
2017-11-04T08:28:35.243Z,67.10
2017-11-04T08:31:02.830Z,67.00
2017-11-04T08:33:30.366Z,66.80
2017-11-04T08:35:57.938Z,66.60
2017-11-04T08:38:25.482Z,66.50
2017-11-04T08:40:52.998Z,66.50
2017-11-04T08:43:20.818Z,66.40
2017-11-04T08:45:48.385Z,66.20
2017-11-04T08:48:16.764Z,66.20
2017-11-04T09:05:45.890Z,65.00
2017-11-04T09:19:34.727Z,64.90
2017-11-04T09:22:02.255Z,64.90
2017-11-04T09:39:00.253Z,64.60
2017-11-04T09:41:27.834Z,64.50
2017-11-04T09:43:55.403Z,62.80
2017-11-04T09:46:23.755Z,62.00
2017-11-04T09:48:52.097Z,61.90
2017-11-04T10:04:00.500Z,61.00
2017-11-04T10:06:28.036Z,61.30
2017-11-04T10:08:55.559Z,60.90
2017-11-04T10:11:23.102Z,60.60
2017-11-04T10:13:50.639Z,60.40
2017-11-04T10:16:18.175Z,61.70
2017-11-04T10:18:45.766Z,61.60
2017-11-04T10:21:13.308Z,61.60
2017-11-04T10:23:42.001Z,62.00
2017-11-04T10:26:09.554Z,61.70
2017-11-04T10:28:37.332Z,62.30
2017-11-04T10:31:04.911Z,62.20
2017-11-04T10:33:32.519Z,61.60
2017-11-04T10:36:00.066Z,61.70
2017-11-04T10:38:28.381Z,61.30
2017-11-04T10:40:56.539Z,61.20
2017-11-04T10:43:24.051Z,61.30
2017-11-04T10:45:51.627Z,61.50
2017-11-04T10:48:19.944Z,62.30
2017-11-04T10:50:47.462Z,61.50
2017-11-04T10:53:15.815Z,61.80
2017-11-04T10:55:43.353Z,61.70
2017-11-04T10:58:10.878Z,61.30
2017-11-04T11:00:39.218Z,61.90
2017-11-04T11:03:06.734Z,61.90
2017-11-04T11:05:34.294Z,61.00
2017-11-04T11:08:01.814Z,61.30
2017-11-04T11:10:29.367Z,60.80
2017-11-04T11:12:56.919Z,60.90
2017-11-04T11:15:24.494Z,62.10
2017-11-04T11:17:52.023Z,61.40
2017-11-04T11:20:19.574Z,60.90
2017-11-04T11:22:47.181Z,60.50
2017-11-04T11:25:15.474Z,61.30
2017-11-04T11:27:42.991Z,61.30
2017-11-04T11:30:10.558Z,61.60
2017-11-04T11:32:38.185Z,61.30
2017-11-04T11:35:05.775Z,61.70
2017-11-04T11:37:33.323Z,61.00
2017-11-04T11:40:00.830Z,61.00
2017-11-04T11:42:29.142Z,61.60
2017-11-04T11:44:56.728Z,61.50
2017-11-04T11:47:24.256Z,61.20
2017-11-04T11:49:51.814Z,61.20
2017-11-04T11:52:19.412Z,60.90
2017-11-04T12:30:48.951Z,61.50
2017-11-04T12:53:23.424Z,62.30
2017-11-04T13:42:16.081Z,64.00
2017-11-04T13:56:14.274Z,64.00
2017-11-04T13:58:42.553Z,63.00
2017-11-04T14:26:42.814Z,64.00
2017-11-04T14:29:10.326Z,63.90
2017-11-04T14:31:37.864Z,64.00
2017-11-04T14:34:06.208Z,64.10
2017-11-04T14:36:33.847Z,64.10
2017-11-04T14:39:01.435Z,66.50
2017-11-04T14:41:28.963Z,67.20
2017-11-04T14:43:56.559Z,67.90
2017-11-04T14:46:24.116Z,67.00
2017-11-04T14:48:51.654Z,67.80
2017-11-04T14:51:19.226Z,68.30
2017-11-04T14:53:46.760Z,68.30
2017-11-04T14:56:14.294Z,68.40
2017-11-04T14:58:42.664Z,68.70
2017-11-04T15:01:10.983Z,68.80
2017-11-04T15:03:38.536Z,68.80
2017-11-04T15:06:06.551Z,68.90
2017-11-04T16:39:44.007Z,68.70
2017-11-04T16:50:50.484Z,67.80
2017-11-04T17:06:05.502Z,69.20
2017-11-04T17:08:33.047Z,68.00
2017-11-04T17:11:00.563Z,67.90
2017-11-04T17:26:14.486Z,69.00
2017-11-04T17:41:46.591Z,68.60
2017-11-04T18:09:24.740Z,68.50
2017-11-04T18:24:18.762Z,68.20
2017-11-04T18:39:42.924Z,69.10
2017-11-04T18:57:34.468Z,69.90
2017-11-04T19:28:21.431Z,69.70
2017-11-04T19:45:02.745Z,68.10
2017-11-04T19:47:30.283Z,68.70
2017-11-04T20:12:12.390Z,69.30
2017-11-04T20:14:40.032Z,69.40
2017-11-04T20:44:30.099Z,69.50
2017-11-04T20:46:57.647Z,69.40
2017-11-04T20:49:26.754Z,70.90
2017-11-04T20:51:54.344Z,69.30
2017-11-04T20:54:22.646Z,69.30
2017-11-04T20:56:51.753Z,69.40
2017-11-04T20:59:19.648Z,69.30
2017-11-04T21:17:15.471Z,69.50
2017-11-04T21:20:46.896Z,69.40
2017-11-04T21:32:46.208Z,69.50
2017-11-04T21:49:41.963Z,69.30
2017-11-04T22:03:54.512Z,69.20
2017-11-04T22:06:24.427Z,69.10
2017-11-04T22:08:52.772Z,69.10
2017-11-04T22:11:23.807Z,69.20
2017-11-04T22:13:52.014Z,69.20
2017-11-04T22:18:52.817Z,69.40
2017-11-04T22:21:20.319Z,70.10
2017-11-04T22:23:48.097Z,69.40
2017-11-04T22:49:00.787Z,69.10
2017-11-04T22:51:31.213Z,69.30
2017-11-04T22:54:00.180Z,69.20
2017-11-04T22:56:27.882Z,69.50
2017-11-04T22:58:55.400Z,69.70
2017-11-04T23:01:23.062Z,70.20
2017-11-04T23:03:50.708Z,70.20
2017-11-04T23:06:19.010Z,70.50
2017-11-04T23:08:46.555Z,70.40
2017-11-04T23:11:14.138Z,70.40
2017-11-04T23:13:44.898Z,70.40
2017-11-04T23:16:12.518Z,70.10
2017-11-04T23:18:40.484Z,70.10
2017-11-04T23:21:08.048Z,70.10
2017-11-04T23:23:35.620Z,70.10
2017-11-04T23:26:03.194Z,70.00
2017-11-04T23:28:30.718Z,70.00
2017-11-04T23:30:58.256Z,70.10
2017-11-04T23:33:26.613Z,70.60
2017-11-04T23:35:55.160Z,70.10
2017-11-04T23:38:22.849Z,70.10
2017-11-04T23:40:50.852Z,70.10
2017-11-04T23:43:19.212Z,70.60
2017-11-04T23:45:47.607Z,70.70
2017-11-04T23:48:15.951Z,70.20
2017-11-04T23:50:43.502Z,70.30
2017-11-04T23:53:11.116Z,70.30
2017-11-04T23:55:40.235Z,70.20
2017-11-04T23:58:07.935Z,70.20
